sensor_id;sensor_type;location;lat;lon;timestamp;temperature;humidity
25622;DHT22;13487;39.360;22.962;2023-02-22T00:00:53;12.40;99.90
25622;DHT22;13487;39.360;22.962;2023-02-22T00:03:29;12.20;1.00
25622;DHT22;13487;39.360;22.962;2023-02-22T00:06:00;12.20;1.00
25622;DHT22;13487;39.360;22.962;2023-02-22T00:08:31;12.20;1.00
25622;DHT22;13487;39.360;22.962;2023-02-22T00:10:58;12.10;1.00
25622;DHT22;13487;39.360;22.962;2023-02-22T00:13:25;12.00;1.00
25622;DHT22;13487;39.360;22.962;2023-02-22T00:15:55;11.90;1.00
25622;DHT22;13487;39.360;22.962;2023-02-22T00:18:21;11.80;99.90
25622;DHT22;13487;39.360;22.962;2023-02-22T00:20:47;11.90;99.90
25622;DHT22;13487;39.360;22.962;2023-02-22T00:23:21;12.00;1.00
25622;DHT22;13487;39.360;22.962;2023-02-22T00:25:49;12.10;1.00
25622;DHT22;13487;39.360;22.962;2023-02-22T00:28:17;12.10;1.00
25622;DHT22;13487;39.360;22.962;2023-02-22T00:30:44;11.80;1.00
25622;DHT22;13487;39.360;22.962;2023-02-22T00:33:15;11.60;99.90
25622;DHT22;13487;39.360;22.962;2023-02-22T00:35:48;11.50;1.00
25622;DHT22;13487;39.360;22.962;2023-02-22T00:38:16;11.40;99.90
25622;DHT22;13487;39.360;22.962;2023-02-22T00:40:43;11.40;99.90
25622;DHT22;13487;39.360;22.962;2023-02-22T00:43:10;11.30;99.90
25622;DHT22;13487;39.360;22.962;2023-02-22T00:45:36;11.60;1.00
25622;DHT22;13487;39.360;22.962;2023-02-22T00:48:04;11.70;99.90
25622;DHT22;13487;39.360;22.962;2023-02-22T00:50:31;11.70;99.90
25622;DHT22;13487;39.360;22.962;2023-02-22T00:53:04;11.80;1.00
25622;DHT22;13487;39.360;22.962;2023-02-22T00:55:36;11.50;99.90
25622;DHT22;13487;39.360;22.962;2023-02-22T00:58:03;11.30;1.00
25622;DHT22;13487;39.360;22.962;2023-02-22T01:00:33;11.20;1.00
25622;DHT22;13487;39.360;22.962;2023-02-22T01:03:01;11.10;99.90
25622;DHT22;13487;39.360;22.962;2023-02-22T01:05:28;11.10;1.00
25622;DHT22;13487;39.360;22.962;2023-02-22T01:07:56;11.20;1.00
25622;DHT22;13487;39.360;22.962;2023-02-22T01:10:25;11.20;99.90
25622;DHT22;13487;39.360;22.962;2023-02-22T01:12:52;11.20;1.00
25622;DHT22;13487;39.360;22.962;2023-02-22T01:15:21;11.10;11.20
25622;DHT22;13487;39.360;22.962;2023-02-22T01:17:49;11.30;99.90
25622;DHT22;13487;39.360;22.962;2023-02-22T01:20:16;11.50;1.00
25622;DHT22;13487;39.360;22.962;2023-02-22T01:22:46;11.60;1.00
25622;DHT22;13487;39.360;22.962;2023-02-22T01:25:20;11.40;1.00
25622;DHT22;13487;39.360;22.962;2023-02-22T01:27:46;11.20;99.90
25622;DHT22;13487;39.360;22.962;2023-02-22T01:30:16;11.00;1.00
25622;DHT22;13487;39.360;22.962;2023-02-22T01:32:43;11.20;99.90
25622;DHT22;13487;39.360;22.962;2023-02-22T01:35:12;11.30;1.00
25622;DHT22;13487;39.360;22.962;2023-02-22T01:37:39;11.40;99.90
25622;DHT22;13487;39.360;22.962;2023-02-22T01:40:08;11.20;1.00
25622;DHT22;13487;39.360;22.962;2023-02-22T01:42:35;11.30;1.00
25622;DHT22;13487;39.360;22.962;2023-02-22T01:50:52;11.20;99.90
25622;DHT22;13487;39.360;22.962;2023-02-22T01:53:23;11.10;1.00
25622;DHT22;13487;39.360;22.962;2023-02-22T01:55:52;11.00;99.90
25622;DHT22;13487;39.360;22.962;2023-02-22T01:58:19;10.90;41.60
25622;DHT22;13487;39.360;22.962;2023-02-22T02:00:47;11.00;99.90
25622;DHT22;13487;39.360;22.962;2023-02-22T02:03:20;11.10;1.00
25622;DHT22;13487;39.360;22.962;2023-02-22T02:05:49;11.00;99.90
25622;DHT22;13487;39.360;22.962;2023-02-22T02:10:54;10.90;95.40
25622;DHT22;13487;39.360;22.962;2023-02-22T02:13:21;11.00;1.00
25622;DHT22;13487;39.360;22.962;2023-02-22T02:15:47;11.00;1.00
25622;DHT22;13487;39.360;22.962;2023-02-22T02:18:14;11.00;1.00
25622;DHT22;13487;39.360;22.962;2023-02-22T02:29:39;10.80;99.90
25622;DHT22;13487;39.360;22.962;2023-02-22T02:37:56;10.50;1.00
25622;DHT22;13487;39.360;22.962;2023-02-22T02:43:14;10.60;1.00
25622;DHT22;13487;39.360;22.962;2023-02-22T02:46:05;10.50;93.10
25622;DHT22;13487;39.360;22.962;2023-02-22T02:48:34;10.50;99.90
25622;DHT22;13487;39.360;22.962;2023-02-22T02:51:02;10.50;95.10
25622;DHT22;13487;39.360;22.962;2023-02-22T02:53:35;10.60;1.00
25622;DHT22;13487;39.360;22.962;2023-02-22T02:56:02;10.70;1.00
25622;DHT22;13487;39.360;22.962;2023-02-22T02:58:28;10.90;1.00
25622;DHT22;13487;39.360;22.962;2023-02-22T03:00:57;11.00;1.00
25622;DHT22;13487;39.360;22.962;2023-02-22T03:06:19;11.10;75.20
25622;DHT22;13487;39.360;22.962;2023-02-22T03:20:15;11.30;99.90
25622;DHT22;13487;39.360;22.962;2023-02-22T03:22:55;11.30;1.00
25622;DHT22;13487;39.360;22.962;2023-02-22T03:25:46;11.00;99.90
25622;DHT22;13487;39.360;22.962;2023-02-22T03:28:16;10.80;1.00
25622;DHT22;13487;39.360;22.962;2023-02-22T03:30:50;10.60;1.00
25622;DHT22;13487;39.360;22.962;2023-02-22T03:33:34;10.40;1.00
25622;DHT22;13487;39.360;22.962;2023-02-22T03:36:32;10.40;1.00
25622;DHT22;13487;39.360;22.962;2023-02-22T03:39:00;10.30;99.90
25622;DHT22;13487;39.360;22.962;2023-02-22T03:41:30;10.30;1.00
25622;DHT22;13487;39.360;22.962;2023-02-22T03:44:05;10.20;1.00
25622;DHT22;13487;39.360;22.962;2023-02-22T03:46:35;10.30;1.00
25622;DHT22;13487;39.360;22.962;2023-02-22T03:51:55;10.70;1.00
25622;DHT22;13487;39.360;22.962;2023-02-22T03:54:21;10.80;1.00
25622;DHT22;13487;39.360;22.962;2023-02-22T03:57:18;10.90;1.00
25622;DHT22;13487;39.360;22.962;2023-02-22T03:59:45;11.00;99.90
25622;DHT22;13487;39.360;22.962;2023-02-22T04:02:11;10.90;1.00
25622;DHT22;13487;39.360;22.962;2023-02-22T04:04:37;11.00;1.00
25622;DHT22;13487;39.360;22.962;2023-02-22T04:07:03;11.10;1.00
25622;DHT22;13487;39.360;22.962;2023-02-22T04:09:29;11.00;72.30
25622;DHT22;13487;39.360;22.962;2023-02-22T04:11:55;10.90;99.90
25622;DHT22;13487;39.360;22.962;2023-02-22T04:14:21;10.50;1.00
25622;DHT22;13487;39.360;22.962;2023-02-22T04:16:47;10.30;1.00
25622;DHT22;13487;39.360;22.962;2023-02-22T04:19:13;10.20;20.60
25622;DHT22;13487;39.360;22.962;2023-02-22T04:21:39;10.10;1.00
25622;DHT22;13487;39.360;22.962;2023-02-22T04:24:06;10.00;1.00
25622;DHT22;13487;39.360;22.962;2023-02-22T04:26:32;10.10;99.90
25622;DHT22;13487;39.360;22.962;2023-02-22T04:28:58;10.00;1.00
25622;DHT22;13487;39.360;22.962;2023-02-22T04:31:24;10.10;1.00
25622;DHT22;13487;39.360;22.962;2023-02-22T04:33:50;10.30;1.00
25622;DHT22;13487;39.360;22.962;2023-02-22T04:36:16;10.20;1.00
25622;DHT22;13487;39.360;22.962;2023-02-22T04:38:43;10.10;1.00
25622;DHT22;13487;39.360;22.962;2023-02-22T04:41:09;10.00;25.00
25622;DHT22;13487;39.360;22.962;2023-02-22T04:43:36;10.00;79.90
25622;DHT22;13487;39.360;22.962;2023-02-22T04:46:02;10.00;99.20
25622;DHT22;13487;39.360;22.962;2023-02-22T04:48:29;9.80;99.90
25622;DHT22;13487;39.360;22.962;2023-02-22T04:50:55;9.80;99.90
25622;DHT22;13487;39.360;22.962;2023-02-22T04:53:21;9.80;1.00
25622;DHT22;13487;39.360;22.962;2023-02-22T04:55:47;9.80;1.00
25622;DHT22;13487;39.360;22.962;2023-02-22T04:58:13;9.80;1.00
25622;DHT22;13487;39.360;22.962;2023-02-22T05:00:39;9.80;1.00
25622;DHT22;13487;39.360;22.962;2023-02-22T05:03:05;9.70;1.00
25622;DHT22;13487;39.360;22.962;2023-02-22T05:05:32;9.70;99.90
25622;DHT22;13487;39.360;22.962;2023-02-22T05:07:58;9.90;1.00
25622;DHT22;13487;39.360;22.962;2023-02-22T05:10:24;10.00;1.00
25622;DHT22;13487;39.360;22.962;2023-02-22T05:12:50;10.10;1.00
25622;DHT22;13487;39.360;22.962;2023-02-22T05:15:18;10.10;1.00
25622;DHT22;13487;39.360;22.962;2023-02-22T05:17:45;9.90;1.00
25622;DHT22;13487;39.360;22.962;2023-02-22T05:20:30;9.80;1.00
25622;DHT22;13487;39.360;22.962;2023-02-22T05:22:58;9.70;1.00
25622;DHT22;13487;39.360;22.962;2023-02-22T05:25:26;9.80;1.00
25622;DHT22;13487;39.360;22.962;2023-02-22T05:28:04;10.00;99.90
25622;DHT22;13487;39.360;22.962;2023-02-22T05:30:34;10.20;99.90
25622;DHT22;13487;39.360;22.962;2023-02-22T05:33:00;10.30;1.00
25622;DHT22;13487;39.360;22.962;2023-02-22T05:35:27;10.50;99.90
25622;DHT22;13487;39.360;22.962;2023-02-22T05:37:54;10.50;1.00
25622;DHT22;13487;39.360;22.962;2023-02-22T05:40:22;10.60;1.00
25622;DHT22;13487;39.360;22.962;2023-02-22T05:42:50;10.80;1.00
25622;DHT22;13487;39.360;22.962;2023-02-22T05:45:18;11.00;99.90
25622;DHT22;13487;39.360;22.962;2023-02-22T05:47:46;11.00;1.00
25622;DHT22;13487;39.360;22.962;2023-02-22T05:50:14;11.50;99.90
25622;DHT22;13487;39.360;22.962;2023-02-22T05:52:40;12.60;1.00
25622;DHT22;13487;39.360;22.962;2023-02-22T05:55:08;13.50;99.90
25622;DHT22;13487;39.360;22.962;2023-02-22T05:57:34;13.80;1.00
25622;DHT22;13487;39.360;22.962;2023-02-22T06:00:02;14.30;1.00
25622;DHT22;13487;39.360;22.962;2023-02-22T06:02:28;14.90;99.90
25622;DHT22;13487;39.360;22.962;2023-02-22T06:04:54;15.20;1.00
25622;DHT22;13487;39.360;22.962;2023-02-22T06:07:20;15.60;1.00
25622;DHT22;13487;39.360;22.962;2023-02-22T06:09:47;16.50;1.00
25622;DHT22;13487;39.360;22.962;2023-02-22T06:12:12;17.40;99.90
25622;DHT22;13487;39.360;22.962;2023-02-22T06:14:38;17.70;99.90
25622;DHT22;13487;39.360;22.962;2023-02-22T06:17:06;17.50;99.90
25622;DHT22;13487;39.360;22.962;2023-02-22T06:19:32;16.80;99.90
25622;DHT22;13487;39.360;22.962;2023-02-22T06:21:58;17.20;99.90
25622;DHT22;13487;39.360;22.962;2023-02-22T06:24:25;17.10;99.90
25622;DHT22;13487;39.360;22.962;2023-02-22T06:26:59;16.30;99.90
25622;DHT22;13487;39.360;22.962;2023-02-22T06:29:26;15.50;99.90
25622;DHT22;13487;39.360;22.962;2023-02-22T06:31:52;14.50;99.90
25622;DHT22;13487;39.360;22.962;2023-02-22T06:34:18;14.10;1.00
25622;DHT22;13487;39.360;22.962;2023-02-22T06:36:44;14.10;1.00
25622;DHT22;13487;39.360;22.962;2023-02-22T06:39:12;13.90;1.00
25622;DHT22;13487;39.360;22.962;2023-02-22T06:41:40;13.90;1.00
25622;DHT22;13487;39.360;22.962;2023-02-22T06:44:07;14.00;1.00
25622;DHT22;13487;39.360;22.962;2023-02-22T06:46:33;14.20;1.00
25622;DHT22;13487;39.360;22.962;2023-02-22T06:48:59;14.30;1.00
25622;DHT22;13487;39.360;22.962;2023-02-22T06:51:26;14.30;1.00
25622;DHT22;13487;39.360;22.962;2023-02-22T06:53:52;14.40;1.00
25622;DHT22;13487;39.360;22.962;2023-02-22T06:56:18;14.50;1.00
25622;DHT22;13487;39.360;22.962;2023-02-22T06:58:44;14.50;1.00
25622;DHT22;13487;39.360;22.962;2023-02-22T07:01:10;14.50;1.00
25622;DHT22;13487;39.360;22.962;2023-02-22T07:03:36;14.30;1.00
25622;DHT22;13487;39.360;22.962;2023-02-22T07:06:02;14.10;1.00
25622;DHT22;13487;39.360;22.962;2023-02-22T07:08:29;14.00;1.00
25622;DHT22;13487;39.360;22.962;2023-02-22T07:10:55;13.80;1.00
25622;DHT22;13487;39.360;22.962;2023-02-22T07:13:21;13.80;1.00
25622;DHT22;13487;39.360;22.962;2023-02-22T07:15:47;13.90;1.00
25622;DHT22;13487;39.360;22.962;2023-02-22T07:18:12;13.80;1.00
25622;DHT22;13487;39.360;22.962;2023-02-22T07:20:40;14.10;1.00
25622;DHT22;13487;39.360;22.962;2023-02-22T07:23:06;14.10;1.00
25622;DHT22;13487;39.360;22.962;2023-02-22T07:25:33;14.10;1.00
25622;DHT22;13487;39.360;22.962;2023-02-22T07:27:58;14.00;1.00
25622;DHT22;13487;39.360;22.962;2023-02-22T07:30:27;14.00;1.00
25622;DHT22;13487;39.360;22.962;2023-02-22T07:32:57;14.00;1.00
25622;DHT22;13487;39.360;22.962;2023-02-22T07:37:50;13.90;1.00
25622;DHT22;13487;39.360;22.962;2023-02-22T07:40:17;13.70;1.00
25622;DHT22;13487;39.360;22.962;2023-02-22T07:43:12;13.80;1.00
25622;DHT22;13487;39.360;22.962;2023-02-22T07:45:38;13.90;1.00
25622;DHT22;13487;39.360;22.962;2023-02-22T07:48:05;13.90;1.00
25622;DHT22;13487;39.360;22.962;2023-02-22T07:50:32;13.80;1.00
25622;DHT22;13487;39.360;22.962;2023-02-22T07:53:00;13.80;1.00
25622;DHT22;13487;39.360;22.962;2023-02-22T07:55:28;13.90;1.00
25622;DHT22;13487;39.360;22.962;2023-02-22T07:57:56;14.00;1.00
25622;DHT22;13487;39.360;22.962;2023-02-22T08:00:29;14.10;1.00
25622;DHT22;13487;39.360;22.962;2023-02-22T08:02:56;14.30;1.00
25622;DHT22;13487;39.360;22.962;2023-02-22T08:05:24;14.40;1.00
25622;DHT22;13487;39.360;22.962;2023-02-22T08:07:50;14.60;1.00
25622;DHT22;13487;39.360;22.962;2023-02-22T08:10:17;14.70;1.00
25622;DHT22;13487;39.360;22.962;2023-02-22T08:12:43;15.00;1.00
25622;DHT22;13487;39.360;22.962;2023-02-22T08:15:19;15.10;1.00
25622;DHT22;13487;39.360;22.962;2023-02-22T08:17:45;15.10;1.00
25622;DHT22;13487;39.360;22.962;2023-02-22T08:20:11;15.30;99.90
25622;DHT22;13487;39.360;22.962;2023-02-22T08:22:36;15.30;99.90
25622;DHT22;13487;39.360;22.962;2023-02-22T08:25:03;15.30;1.00
25622;DHT22;13487;39.360;22.962;2023-02-22T08:27:29;15.10;1.00
25622;DHT22;13487;39.360;22.962;2023-02-22T08:29:55;15.20;1.00
25622;DHT22;13487;39.360;22.962;2023-02-22T08:32:22;14.90;1.00
25622;DHT22;13487;39.360;22.962;2023-02-22T08:34:47;14.90;1.00
25622;DHT22;13487;39.360;22.962;2023-02-22T08:37:14;14.70;1.00
25622;DHT22;13487;39.360;22.962;2023-02-22T08:39:40;14.70;1.00
25622;DHT22;13487;39.360;22.962;2023-02-22T08:42:07;14.70;1.00
25622;DHT22;13487;39.360;22.962;2023-02-22T08:44:37;14.80;99.90
25622;DHT22;13487;39.360;22.962;2023-02-22T08:47:03;14.90;99.90
25622;DHT22;13487;39.360;22.962;2023-02-22T08:49:29;15.10;99.90
25622;DHT22;13487;39.360;22.962;2023-02-22T08:51:54;14.90;99.90
25622;DHT22;13487;39.360;22.962;2023-02-22T08:54:20;14.80;1.00
25622;DHT22;13487;39.360;22.962;2023-02-22T08:56:47;14.80;1.00
25622;DHT22;13487;39.360;22.962;2023-02-22T08:59:14;14.80;99.90
25622;DHT22;13487;39.360;22.962;2023-02-22T09:01:40;14.80;99.90
25622;DHT22;13487;39.360;22.962;2023-02-22T09:04:06;14.80;99.90
25622;DHT22;13487;39.360;22.962;2023-02-22T09:06:31;14.90;99.90
25622;DHT22;13487;39.360;22.962;2023-02-22T09:08:57;14.90;68.00
25622;DHT22;13487;39.360;22.962;2023-02-22T09:11:23;15.10;1.00
25622;DHT22;13487;39.360;22.962;2023-02-22T09:13:49;15.10;1.00
25622;DHT22;13487;39.360;22.962;2023-02-22T09:16:15;15.20;1.00
25622;DHT22;13487;39.360;22.962;2023-02-22T09:18:40;15.30;1.00
25622;DHT22;13487;39.360;22.962;2023-02-22T09:21:06;15.30;1.00
25622;DHT22;13487;39.360;22.962;2023-02-22T09:23:32;15.40;1.00
25622;DHT22;13487;39.360;22.962;2023-02-22T09:25:59;15.50;1.00
25622;DHT22;13487;39.360;22.962;2023-02-22T09:28:26;15.50;1.00
25622;DHT22;13487;39.360;22.962;2023-02-22T09:30:52;15.80;1.00
25622;DHT22;13487;39.360;22.962;2023-02-22T09:33:19;15.70;1.00
25622;DHT22;13487;39.360;22.962;2023-02-22T09:35:47;15.90;1.00
25622;DHT22;13487;39.360;22.962;2023-02-22T09:38:19;16.00;1.00
25622;DHT22;13487;39.360;22.962;2023-02-22T09:46:33;16.00;99.90
25622;DHT22;13487;39.360;22.962;2023-02-22T09:54:23;16.40;1.00
25622;DHT22;13487;39.360;22.962;2023-02-22T09:56:52;16.40;1.00
25622;DHT22;13487;39.360;22.962;2023-02-22T09:59:25;16.40;1.00
25622;DHT22;13487;39.360;22.962;2023-02-22T10:01:59;16.50;24.20
25622;DHT22;13487;39.360;22.962;2023-02-22T10:04:39;16.30;94.20
25622;DHT22;13487;39.360;22.962;2023-02-22T10:07:19;16.20;99.90
25622;DHT22;13487;39.360;22.962;2023-02-22T10:09:52;16.10;99.90
25622;DHT22;13487;39.360;22.962;2023-02-22T10:25:52;16.10;99.90
25622;DHT22;13487;39.360;22.962;2023-02-22T10:28:40;16.30;99.90
25622;DHT22;13487;39.360;22.962;2023-02-22T10:31:15;16.40;84.60
25622;DHT22;13487;39.360;22.962;2023-02-22T10:33:54;16.50;1.00
25622;DHT22;13487;39.360;22.962;2023-02-22T10:36:22;16.50;1.00
25622;DHT22;13487;39.360;22.962;2023-02-22T10:38:58;16.60;1.00
25622;DHT22;13487;39.360;22.962;2023-02-22T10:41:32;16.70;1.00
25622;DHT22;13487;39.360;22.962;2023-02-22T10:44:00;16.90;1.00
25622;DHT22;13487;39.360;22.962;2023-02-22T10:46:27;16.80;1.00
25622;DHT22;13487;39.360;22.962;2023-02-22T10:48:59;16.70;1.00
25622;DHT22;13487;39.360;22.962;2023-02-22T10:51:27;16.90;99.90
25622;DHT22;13487;39.360;22.962;2023-02-22T10:56:47;16.80;99.90
25622;DHT22;13487;39.360;22.962;2023-02-22T10:59:36;16.80;99.90
25622;DHT22;13487;39.360;22.962;2023-02-22T11:04:49;16.70;99.90
25622;DHT22;13487;39.360;22.962;2023-02-22T11:07:27;16.70;99.90
25622;DHT22;13487;39.360;22.962;2023-02-22T11:10:00;16.90;99.90
25622;DHT22;13487;39.360;22.962;2023-02-22T11:12:32;16.90;99.90
25622;DHT22;13487;39.360;22.962;2023-02-22T11:17:48;16.80;99.90
25622;DHT22;13487;39.360;22.962;2023-02-22T11:20:19;16.70;99.90
25622;DHT22;13487;39.360;22.962;2023-02-22T11:22:52;16.70;99.90
25622;DHT22;13487;39.360;22.962;2023-02-22T11:25:21;16.70;99.90
25622;DHT22;13487;39.360;22.962;2023-02-22T11:27:50;16.80;99.90
25622;DHT22;13487;39.360;22.962;2023-02-22T11:32:59;17.10;99.90
25622;DHT22;13487;39.360;22.962;2023-02-22T11:38:10;17.30;99.90
25622;DHT22;13487;39.360;22.962;2023-02-22T11:40:36;17.20;99.90
25622;DHT22;13487;39.360;22.962;2023-02-22T11:43:18;17.20;99.90
25622;DHT22;13487;39.360;22.962;2023-02-22T11:46:08;17.20;99.90
25622;DHT22;13487;39.360;22.962;2023-02-22T11:48:36;17.30;99.90
25622;DHT22;13487;39.360;22.962;2023-02-22T11:51:22;17.20;99.90
25622;DHT22;13487;39.360;22.962;2023-02-22T11:56:38;17.30;94.40
25622;DHT22;13487;39.360;22.962;2023-02-22T11:59:23;17.40;91.30
25622;DHT22;13487;39.360;22.962;2023-02-22T12:01:56;17.50;69.10
25622;DHT22;13487;39.360;22.962;2023-02-22T12:10:27;17.40;91.90
25622;DHT22;13487;39.360;22.962;2023-02-22T12:13:11;17.60;68.60
25622;DHT22;13487;39.360;22.962;2023-02-22T12:18:38;17.70;48.60
25622;DHT22;13487;39.360;22.962;2023-02-22T12:21:15;17.90;35.90
25622;DHT22;13487;39.360;22.962;2023-02-22T12:24:10;18.10;20.70
25622;DHT22;13487;39.360;22.962;2023-02-22T12:26:49;18.20;5.40
25622;DHT22;13487;39.360;22.962;2023-02-22T12:29:20;18.00;11.20
25622;DHT22;13487;39.360;22.962;2023-02-22T12:31:56;18.00;8.00
25622;DHT22;13487;39.360;22.962;2023-02-22T12:34:47;17.90;15.10
25622;DHT22;13487;39.360;22.962;2023-02-22T12:42:21;17.60;40.50
25622;DHT22;13487;39.360;22.962;2023-02-22T12:45:05;17.70;26.20
25622;DHT22;13487;39.360;22.962;2023-02-22T12:47:38;17.80;19.70
25622;DHT22;13487;39.360;22.962;2023-02-22T12:50:19;17.90;18.50
25622;DHT22;13487;39.360;22.962;2023-02-22T12:53:21;18.00;19.60
25622;DHT22;13487;39.360;22.962;2023-02-22T12:56:11;17.90;36.60
25622;DHT22;13487;39.360;22.962;2023-02-22T13:01:51;18.10;25.50
25622;DHT22;13487;39.360;22.962;2023-02-22T13:04:18;18.00;29.70
25622;DHT22;13487;39.360;22.962;2023-02-22T13:13:00;17.90;38.10
25622;DHT22;13487;39.360;22.962;2023-02-22T13:20:44;17.80;68.30
25622;DHT22;13487;39.360;22.962;2023-02-22T13:29:14;17.80;99.90
25622;DHT22;13487;39.360;22.962;2023-02-22T13:53:31;18.00;99.90
25622;DHT22;13487;39.360;22.962;2023-02-22T13:56:01;18.00;99.90
25622;DHT22;13487;39.360;22.962;2023-02-22T13:58:27;17.90;99.90
25622;DHT22;13487;39.360;22.962;2023-02-22T14:00:58;17.90;99.90
25622;DHT22;13487;39.360;22.962;2023-02-22T14:03:33;17.80;99.90
25622;DHT22;13487;39.360;22.962;2023-02-22T14:08:48;17.90;99.90
25622;DHT22;13487;39.360;22.962;2023-02-22T14:16:26;17.80;92.50
25622;DHT22;13487;39.360;22.962;2023-02-22T14:24:19;17.50;99.90
25622;DHT22;13487;39.360;22.962;2023-02-22T14:26:58;17.50;99.90
25622;DHT22;13487;39.360;22.962;2023-02-22T14:29:24;17.50;99.90
25622;DHT22;13487;39.360;22.962;2023-02-22T14:34:20;17.40;99.90
25622;DHT22;13487;39.360;22.962;2023-02-22T14:39:38;17.40;99.90
25622;DHT22;13487;39.360;22.962;2023-02-22T14:52:44;17.10;99.90
25622;DHT22;13487;39.360;22.962;2023-02-22T14:55:24;17.00;99.90
25622;DHT22;13487;39.360;22.962;2023-02-22T15:00:49;17.00;99.90
25622;DHT22;13487;39.360;22.962;2023-02-22T15:06:19;17.00;99.90
25622;DHT22;13487;39.360;22.962;2023-02-22T15:08:47;17.00;99.90
25622;DHT22;13487;39.360;22.962;2023-02-22T15:11:21;16.90;99.90
25622;DHT22;13487;39.360;22.962;2023-02-22T15:13:53;16.90;1.00
25622;DHT22;13487;39.360;22.962;2023-02-22T15:16:20;16.80;1.00
25622;DHT22;13487;39.360;22.962;2023-02-22T15:18:51;16.80;1.00
25622;DHT22;13487;39.360;22.962;2023-02-22T15:21:23;16.90;1.00
25622;DHT22;13487;39.360;22.962;2023-02-22T15:23:58;16.80;1.00
25622;DHT22;13487;39.360;22.962;2023-02-22T15:26:34;16.80;1.00
25622;DHT22;13487;39.360;22.962;2023-02-22T15:31:37;16.80;30.60
25622;DHT22;13487;39.360;22.962;2023-02-22T15:34:31;16.70;99.90
25622;DHT22;13487;39.360;22.962;2023-02-22T15:37:23;16.60;99.90
25622;DHT22;13487;39.360;22.962;2023-02-22T15:39:50;16.70;1.00
25622;DHT22;13487;39.360;22.962;2023-02-22T15:42:25;16.60;1.00
25622;DHT22;13487;39.360;22.962;2023-02-22T15:44:53;16.60;1.00
25622;DHT22;13487;39.360;22.962;2023-02-22T15:47:25;16.70;1.00
25622;DHT22;13487;39.360;22.962;2023-02-22T15:50:22;16.70;1.00
25622;DHT22;13487;39.360;22.962;2023-02-22T15:52:58;16.40;99.90
25622;DHT22;13487;39.360;22.962;2023-02-22T15:55:41;16.40;1.00
25622;DHT22;13487;39.360;22.962;2023-02-22T15:58:19;16.30;96.30
25622;DHT22;13487;39.360;22.962;2023-02-22T16:01:09;16.30;99.90
25622;DHT22;13487;39.360;22.962;2023-02-22T16:06:35;16.40;1.00
25622;DHT22;13487;39.360;22.962;2023-02-22T16:09:07;16.20;99.90
25622;DHT22;13487;39.360;22.962;2023-02-22T16:14:54;16.00;99.90
25622;DHT22;13487;39.360;22.962;2023-02-22T16:17:23;16.00;1.00
25622;DHT22;13487;39.360;22.962;2023-02-22T16:19:50;16.10;1.00
25622;DHT22;13487;39.360;22.962;2023-02-22T16:22:27;16.00;99.90
25622;DHT22;13487;39.360;22.962;2023-02-22T16:27:47;15.90;1.00
25622;DHT22;13487;39.360;22.962;2023-02-22T16:32:51;16.00;99.90
25622;DHT22;13487;39.360;22.962;2023-02-22T16:35:18;16.00;99.90
25622;DHT22;13487;39.360;22.962;2023-02-22T16:37:51;16.00;99.90
25622;DHT22;13487;39.360;22.962;2023-02-22T16:43:04;15.70;99.90
25622;DHT22;13487;39.360;22.962;2023-02-22T16:45:31;15.60;99.90
25622;DHT22;13487;39.360;22.962;2023-02-22T16:47:58;15.30;1.00
25622;DHT22;13487;39.360;22.962;2023-02-22T16:50:24;15.20;99.90
25622;DHT22;13487;39.360;22.962;2023-02-22T16:52:53;15.10;99.90
25622;DHT22;13487;39.360;22.962;2023-02-22T16:55:20;15.20;99.90
25622;DHT22;13487;39.360;22.962;2023-02-22T16:57:47;15.20;1.00
25622;DHT22;13487;39.360;22.962;2023-02-22T17:00:18;15.20;99.90
25622;DHT22;13487;39.360;22.962;2023-02-22T17:02:46;15.10;1.00
25622;DHT22;13487;39.360;22.962;2023-02-22T17:05:14;14.90;1.00
25622;DHT22;13487;39.360;22.962;2023-02-22T17:07:40;14.80;1.00
25622;DHT22;13487;39.360;22.962;2023-02-22T17:10:09;14.70;1.00
25622;DHT22;13487;39.360;22.962;2023-02-22T17:12:39;14.70;1.00
25622;DHT22;13487;39.360;22.962;2023-02-22T17:15:17;14.60;1.00
25622;DHT22;13487;39.360;22.962;2023-02-22T17:17:44;14.60;1.00
25622;DHT22;13487;39.360;22.962;2023-02-22T17:20:10;14.60;1.00
25622;DHT22;13487;39.360;22.962;2023-02-22T17:22:36;14.60;1.00
25622;DHT22;13487;39.360;22.962;2023-02-22T17:25:21;14.50;1.00
25622;DHT22;13487;39.360;22.962;2023-02-22T17:27:47;14.50;1.00
25622;DHT22;13487;39.360;22.962;2023-02-22T17:30:15;14.40;1.00
25622;DHT22;13487;39.360;22.962;2023-02-22T17:32:42;14.50;1.00
25622;DHT22;13487;39.360;22.962;2023-02-22T17:35:08;14.40;1.00
25622;DHT22;13487;39.360;22.962;2023-02-22T17:37:33;14.30;1.00
25622;DHT22;13487;39.360;22.962;2023-02-22T17:39:59;14.30;1.00
25622;DHT22;13487;39.360;22.962;2023-02-22T17:42:25;14.30;1.00
25622;DHT22;13487;39.360;22.962;2023-02-22T17:44:50;14.20;1.00
25622;DHT22;13487;39.360;22.962;2023-02-22T17:47:16;14.30;1.00
25622;DHT22;13487;39.360;22.962;2023-02-22T17:49:42;14.20;1.00
25622;DHT22;13487;39.360;22.962;2023-02-22T17:52:08;14.20;1.00
25622;DHT22;13487;39.360;22.962;2023-02-22T17:54:34;14.10;1.00
25622;DHT22;13487;39.360;22.962;2023-02-22T17:57:00;14.10;1.00
25622;DHT22;13487;39.360;22.962;2023-02-22T17:59:26;14.00;1.00
25622;DHT22;13487;39.360;22.962;2023-02-22T18:01:52;14.10;1.00
25622;DHT22;13487;39.360;22.962;2023-02-22T18:04:18;14.00;1.00
25622;DHT22;13487;39.360;22.962;2023-02-22T18:06:44;14.00;1.00
25622;DHT22;13487;39.360;22.962;2023-02-22T18:09:10;13.90;1.00
25622;DHT22;13487;39.360;22.962;2023-02-22T18:11:37;14.00;99.90
25622;DHT22;13487;39.360;22.962;2023-02-22T18:14:03;13.90;1.00
25622;DHT22;13487;39.360;22.962;2023-02-22T18:16:32;13.80;1.00
25622;DHT22;13487;39.360;22.962;2023-02-22T18:18:57;13.80;1.00
25622;DHT22;13487;39.360;22.962;2023-02-22T18:21:26;13.80;1.00
25622;DHT22;13487;39.360;22.962;2023-02-22T18:23:51;13.70;99.90
25622;DHT22;13487;39.360;22.962;2023-02-22T18:26:20;13.70;99.90
25622;DHT22;13487;39.360;22.962;2023-02-22T18:28:47;13.70;99.90
25622;DHT22;13487;39.360;22.962;2023-02-22T18:31:19;13.60;65.50
25622;DHT22;13487;39.360;22.962;2023-02-22T18:33:47;13.60;1.00
25622;DHT22;13487;39.360;22.962;2023-02-22T18:36:18;13.50;1.00
25622;DHT22;13487;39.360;22.962;2023-02-22T18:38:47;13.50;58.20
25622;DHT22;13487;39.360;22.962;2023-02-22T18:41:17;13.50;99.90
25622;DHT22;13487;39.360;22.962;2023-02-22T18:43:43;13.40;99.90
25622;DHT22;13487;39.360;22.962;2023-02-22T18:46:18;13.40;1.00
25622;DHT22;13487;39.360;22.962;2023-02-22T18:48:50;13.30;1.00
25622;DHT22;13487;39.360;22.962;2023-02-22T18:51:16;13.30;1.00
25622;DHT22;13487;39.360;22.962;2023-02-22T18:53:42;13.30;1.00
25622;DHT22;13487;39.360;22.962;2023-02-22T18:56:14;13.30;1.00